createdAt,value
2016-04-05T00:00:56.264Z,12.09
2016-04-05T00:01:56.173Z,11.84
2016-04-05T00:02:56.129Z,11.87
2016-04-05T00:03:56.085Z,11.73
2016-04-05T00:04:56.041Z,11.7
2016-04-05T00:05:55.996Z,11.75
2016-04-05T00:06:55.938Z,11.78
2016-04-05T00:07:55.877Z,11.84
2016-04-05T00:08:55.833Z,11.94
2016-04-05T00:09:55.773Z,11.9
2016-04-05T00:10:55.744Z,11.99
2016-04-05T00:11:55.701Z,12
2016-04-05T00:12:55.624Z,11.88
2016-04-05T00:13:55.581Z,11.91
2016-04-05T00:14:55.520Z,11.73
2016-04-05T00:15:55.492Z,11.69
2016-04-05T00:16:55.448Z,11.73
2016-04-05T00:17:55.372Z,11.8
2016-04-05T00:18:55.329Z,11.7
2016-04-05T00:19:55.284Z,11.54
2016-04-05T00:20:55.240Z,11.52
2016-04-05T00:21:55.181Z,11.47
2016-04-05T00:22:55.151Z,11.5
2016-04-05T00:23:55.076Z,11.37
2016-04-05T00:24:55.078Z,11.51
2016-04-05T00:25:54.988Z,11.6
2016-04-05T00:26:54.944Z,11.69
2016-04-05T00:27:54.900Z,11.7
2016-04-05T00:28:54.840Z,11.68
2016-04-05T00:29:54.780Z,11.66
2016-04-05T00:30:54.736Z,11.48
2016-04-05T00:31:54.676Z,11.43
2016-04-05T00:32:54.617Z,11.41
2016-04-05T00:33:54.588Z,11.44
2016-04-05T00:34:54.528Z,11.47
2016-04-05T00:35:54.483Z,11.47
2016-04-05T00:36:54.439Z,11.57
2016-04-05T00:37:54.395Z,11.41
2016-04-05T00:38:54.335Z,11.44
2016-04-05T00:39:54.276Z,11.54
2016-04-05T00:40:54.232Z,11.44
2016-04-05T00:41:54.203Z,11.44
2016-04-05T00:42:54.127Z,11.32
2016-04-05T00:43:54.068Z,11.14
2016-04-05T00:44:54.039Z,10.97
2016-04-05T00:45:53.979Z,10.9
2016-04-05T00:46:53.920Z,11.05
2016-04-05T00:47:53.859Z,11.23
2016-04-05T00:48:53.815Z,11.29
2016-04-05T00:49:53.770Z,11.32
2016-04-05T00:50:53.726Z,11.25
2016-04-05T00:51:53.683Z,11.17
2016-04-05T00:52:53.622Z,10.96
2016-04-05T00:53:53.564Z,10.87
2016-04-05T00:54:53.503Z,10.78
2016-04-05T00:55:53.490Z,10.93
2016-04-05T00:56:53.431Z,10.84
2016-04-05T00:57:53.386Z,10.89
2016-04-05T00:58:53.342Z,10.94
2016-04-05T00:59:53.250Z,11.15
2016-04-05T01:00:53.207Z,11.14
2016-04-05T01:01:53.163Z,11.02
2016-04-05T01:02:53.103Z,10.9
2016-04-05T01:03:53.059Z,10.99
2016-04-05T01:04:53.015Z,10.82
2016-04-05T01:05:52.971Z,10.72
2016-04-05T01:06:52.895Z,10.54
2016-04-05T01:07:52.866Z,10.81
2016-04-05T01:08:52.822Z,10.9
2016-04-05T01:09:52.732Z,11.05
2016-04-05T01:10:52.702Z,10.84
2016-04-05T01:11:52.658Z,10.99
2016-04-05T01:12:52.598Z,10.79
2016-04-05T01:13:52.554Z,10.75
2016-04-05T01:14:52.541Z,10.72
2016-04-05T01:15:52.434Z,10.67
2016-04-05T01:16:52.437Z,10.44
2016-04-05T01:17:52.346Z,10.54
2016-04-05T01:18:52.302Z,10.71
2016-04-05T01:19:52.243Z,10.9
2016-04-05T01:20:52.198Z,10.86
2016-04-05T01:21:52.139Z,10.89
2016-04-05T01:22:52.094Z,10.97
2016-04-05T01:23:52.065Z,10.78
2016-04-05T01:24:51.990Z,10.79
2016-04-05T01:25:51.945Z,10.61
2016-04-05T01:26:52.089Z,10.76
2016-04-05T01:27:51.842Z,10.81
2016-04-05T01:28:51.766Z,10.89
2016-04-05T01:29:51.753Z,10.89
2016-04-05T01:30:51.678Z,10.9
2016-04-05T01:31:51.634Z,10.96
2016-04-05T01:32:55.590Z,11.05
2016-04-05T01:33:51.530Z,10.89
2016-04-05T01:34:51.486Z,10.72
2016-04-05T01:35:51.457Z,10.71
2016-04-05T01:36:51.382Z,10.53
2016-04-05T01:37:51.322Z,10.42
2016-04-05T01:38:51.293Z,10.49
2016-04-05T01:39:51.234Z,10.48
2016-04-05T01:40:51.190Z,10.46
2016-04-05T01:41:51.146Z,10.49
2016-04-05T01:42:51.071Z,10.59
2016-04-05T01:43:51.026Z,10.59
2016-04-05T01:44:51.029Z,10.76
2016-04-05T01:45:50.990Z,10.81
2016-04-05T01:46:50.873Z,10.75
2016-04-05T01:47:50.829Z,10.86
2016-04-05T01:48:50.844Z,10.87
2016-04-05T01:49:51.888Z,10.87
2016-04-05T01:50:50.672Z,10.79
2016-04-05T01:51:50.612Z,10.82
2016-04-05T01:52:50.584Z,10.76
2016-04-05T01:53:50.523Z,10.61
2016-04-05T01:54:50.449Z,10.49
2016-04-05T01:55:50.420Z,10.4
2016-04-05T01:56:50.407Z,10.35
2016-04-05T01:57:50.300Z,10.23
2016-04-05T01:58:50.256Z,10.13
2016-04-05T01:59:50.087Z,10.1
2016-04-05T02:00:50.168Z,10.01
2016-04-05T02:01:50.108Z,10.19
2016-04-05T02:02:50.048Z,10.33
2016-04-05T02:03:50.020Z,10.23
2016-04-05T02:04:49.961Z,10.25
2016-04-05T02:05:49.917Z,10.22
2016-04-05T02:06:49.856Z,10.26
2016-04-05T02:07:49.817Z,10.41
2016-04-05T02:08:49.742Z,10.23
2016-04-05T02:09:49.713Z,10.13
2016-04-05T02:10:49.653Z,10.1
2016-04-05T02:11:49.593Z,10.04
2016-04-05T02:12:49.549Z,10.09
2016-04-05T02:13:49.474Z,10.1
2016-04-05T02:14:49.632Z,10.1
2016-04-05T02:15:49.416Z,10.22
2016-04-05T02:16:49.340Z,10.22
2016-04-05T02:17:49.281Z,10.26
2016-04-05T02:18:49.221Z,10.19
2016-04-05T02:19:49.177Z,10.26
2016-04-05T02:20:49.133Z,10.34
2016-04-05T02:21:49.073Z,10.3
2016-04-05T02:22:49.029Z,10.02
2016-04-05T02:23:48.985Z,10.01
2016-04-05T02:24:48.925Z,10.16
2016-04-05T02:25:48.865Z,10.26
2016-04-05T02:26:48.820Z,10.37
2016-04-05T02:27:48.745Z,10.15
2016-04-05T02:28:48.733Z,9.95
2016-04-05T02:29:48.547Z,9.95
2016-04-05T02:30:48.614Z,9.77
2016-04-05T02:31:48.569Z,9.82
2016-04-05T02:32:48.509Z,9.73
2016-04-05T02:33:48.449Z,9.69
2016-04-05T02:34:48.405Z,9.89
2016-04-05T02:35:48.377Z,10.01
2016-04-05T02:36:48.301Z,9.91
2016-04-05T02:37:48.257Z,9.89
2016-04-05T02:38:48.025Z,9.83
2016-04-05T02:39:48.152Z,9.91
2016-04-05T02:40:48.093Z,9.77
2016-04-05T02:41:48.033Z,9.73
2016-04-05T02:42:48.004Z,9.61
2016-04-05T02:43:47.945Z,9.59
2016-04-05T02:44:48.118Z,9.5
2016-04-05T02:45:47.811Z,9.43
2016-04-05T02:46:47.770Z,9.5
2016-04-05T02:47:47.698Z,9.68
2016-04-05T02:48:47.641Z,9.73
2016-04-05T02:49:47.568Z,9.72
2016-04-05T02:50:47.506Z,9.69
2016-04-05T02:51:47.458Z,9.77
2016-04-05T02:52:47.409Z,9.91
2016-04-05T02:53:47.376Z,9.84
2016-04-05T02:54:47.296Z,9.91
2016-04-05T02:55:47.248Z,9.92
2016-04-05T02:56:47.186Z,9.8
2016-04-05T02:57:47.125Z,9.64
2016-04-05T02:58:47.063Z,9.72
2016-04-05T02:59:47.033Z,9.58
2016-04-05T03:00:46.972Z,9.54
2016-04-05T03:01:46.895Z,9.59
2016-04-05T03:02:46.851Z,9.72
2016-04-05T03:03:46.821Z,9.48
2016-04-05T03:04:46.761Z,9.29
2016-04-05T03:05:46.716Z,9.22
2016-04-05T03:06:46.641Z,9.19
2016-04-05T03:07:46.612Z,9.26
2016-04-05T03:08:46.568Z,9.29
2016-04-05T03:09:46.477Z,9.31
2016-04-05T03:10:46.433Z,9.41
2016-04-05T03:11:46.420Z,9.4
2016-04-05T03:12:45.610Z,9.37
2016-04-05T03:13:46.300Z,9.28
2016-04-05T03:14:46.225Z,9.18
2016-04-05T03:15:46.180Z,9.37
2016-04-05T03:16:46.137Z,9.32
2016-04-05T03:17:46.093Z,9.22
2016-04-05T03:18:46.017Z,9.18
2016-04-05T03:19:45.973Z,9.22
2016-04-05T03:20:45.928Z,8.99
2016-04-05T03:21:45.900Z,8.89
2016-04-05T03:22:45.809Z,8.89
2016-04-05T03:23:45.765Z,8.99
2016-04-05T03:24:45.720Z,9.03
2016-04-05T03:25:45.645Z,9.1
2016-04-05T03:26:45.601Z,9.28
2016-04-05T03:27:45.557Z,9.32
2016-04-05T03:28:45.512Z,9.36
2016-04-05T03:29:45.454Z,9.31
2016-04-05T03:30:45.393Z,9.44
2016-04-05T03:31:45.334Z,9.41
2016-04-05T03:32:45.306Z,9.54
2016-04-05T03:33:45.229Z,9.34
2016-04-05T03:34:45.217Z,9
2016-04-05T03:35:45.139Z,9.14
2016-04-05T03:36:45.078Z,9.02
2016-04-05T03:37:45.034Z,9.06
2016-04-05T03:38:44.974Z,9.03
2016-04-05T03:39:44.915Z,8.89
2016-04-05T03:40:44.855Z,8.84
2016-04-05T03:41:44.811Z,8.87
2016-04-05T03:42:44.751Z,8.84
2016-04-05T03:43:44.722Z,8.76
2016-04-05T03:44:44.663Z,8.73
2016-04-05T03:45:44.603Z,8.95
2016-04-05T03:46:44.558Z,9.08
2016-04-05T03:47:44.515Z,8.95
2016-04-05T03:48:44.455Z,9.11
2016-04-05T03:49:44.380Z,9.26
2016-04-05T03:50:44.366Z,9.23
2016-04-05T03:51:44.291Z,9.29
2016-04-05T03:52:44.231Z,9.39
2016-04-05T03:53:44.171Z,9.34
2016-04-05T03:54:44.143Z,9.29
2016-04-05T03:55:44.068Z,9.04
2016-04-05T03:56:44.055Z,8.99
2016-04-05T03:57:43.963Z,9.06
2016-04-05T03:58:43.920Z,9
2016-04-05T03:59:43.875Z,9.04
2016-04-05T04:00:43.815Z,8.92
2016-04-05T04:01:43.755Z,8.94
2016-04-05T04:02:43.726Z,8.84
2016-04-05T04:03:43.667Z,8.66
2016-04-05T04:04:43.606Z,8.92
2016-04-05T04:05:43.563Z,9.04
2016-04-05T04:06:43.503Z,8.99
2016-04-05T04:07:43.459Z,8.7
2016-04-05T04:08:43.400Z,8.61
2016-04-05T04:09:43.355Z,8.78
2016-04-05T04:10:43.295Z,8.61
2016-04-05T04:11:43.236Z,8.63
2016-04-05T04:12:43.223Z,8.6
2016-04-05T04:13:43.147Z,8.87
2016-04-05T04:14:43.072Z,8.91
2016-04-05T04:15:43.027Z,8.91
2016-04-05T04:16:43.186Z,8.87
2016-04-05T04:17:42.924Z,8.92
2016-04-05T04:18:42.879Z,8.88
2016-04-05T04:19:42.819Z,8.73
2016-04-05T04:20:42.760Z,8.66
2016-04-05T04:21:42.731Z,8.51
2016-04-05T04:22:42.655Z,8.55
2016-04-05T04:23:42.611Z,8.64
2016-04-05T04:24:42.551Z,8.55
2016-04-05T04:25:42.523Z,8.49
2016-04-05T04:26:42.448Z,8.37
2016-04-05T04:27:42.388Z,8.52
2016-04-05T04:28:42.343Z,8.49
2016-04-05T04:29:42.299Z,8.61
2016-04-05T04:30:42.239Z,8.49
2016-04-05T04:31:42.211Z,8.51
2016-04-05T04:32:42.136Z,8.42
2016-04-05T04:33:42.107Z,8.48
2016-04-05T04:34:42.032Z,8.48
2016-04-05T04:35:41.987Z,8.6
2016-04-05T04:36:41.927Z,8.69
2016-04-05T04:37:41.868Z,8.76
2016-04-05T04:38:41.839Z,8.85
2016-04-05T04:39:41.764Z,8.82
2016-04-05T04:40:41.720Z,8.95
2016-04-05T04:41:41.722Z,8.99
2016-04-05T04:42:41.616Z,9
2016-04-05T04:43:41.556Z,8.97
2016-04-05T04:44:41.496Z,9.03
2016-04-05T04:45:41.467Z,8.88
2016-04-05T04:46:41.424Z,8.69
2016-04-05T04:47:41.364Z,8.58
2016-04-05T04:48:41.288Z,8.46
2016-04-05T04:49:41.228Z,8.66
2016-04-05T04:50:41.184Z,8.85
2016-04-05T04:51:41.140Z,8.91
2016-04-05T04:52:41.080Z,8.94
2016-04-05T04:53:41.035Z,8.76
2016-04-05T04:54:40.961Z,8.41
2016-04-05T04:55:40.916Z,8.44
2016-04-05T04:56:40.871Z,8.51
2016-04-05T04:57:40.829Z,8.71
2016-04-05T04:58:40.627Z,8.64
2016-04-05T04:59:40.724Z,8.81
2016-04-05T05:00:40.648Z,8.84
2016-04-05T05:01:40.620Z,8.89
2016-04-05T05:02:40.560Z,8.76
2016-04-05T05:03:40.515Z,8.58
2016-04-05T05:04:40.456Z,8.31
2016-04-05T05:05:40.412Z,8.28
2016-04-05T05:06:40.352Z,8.28
2016-04-05T05:07:40.292Z,8.33
2016-04-05T05:08:39.514Z,8.44
2016-04-05T05:09:40.189Z,8.44
2016-04-05T05:10:40.128Z,8.6
2016-04-05T05:11:40.084Z,8.63
2016-04-05T05:12:40.025Z,8.42
2016-04-05T05:13:39.980Z,8.41
2016-04-05T05:14:39.920Z,8.38
2016-04-05T05:15:39.877Z,8.63
2016-04-05T05:16:39.817Z,8.61
2016-04-05T05:17:39.772Z,8.45
2016-04-05T05:18:39.727Z,8.66
2016-04-05T05:19:39.669Z,8.81
2016-04-05T05:20:39.608Z,8.79
2016-04-05T05:21:39.563Z,8.88
2016-04-05T05:22:39.708Z,8.91
2016-04-05T05:23:39.460Z,8.89
2016-04-05T05:24:39.401Z,8.84
2016-04-05T05:25:39.341Z,8.99
2016-04-05T05:26:39.296Z,9.02
2016-04-05T05:27:39.237Z,8.91
2016-04-05T05:28:39.193Z,8.94
2016-04-05T05:29:39.133Z,9.06
2016-04-05T05:30:39.088Z,9.08
2016-04-05T05:31:39.060Z,9.03
2016-04-05T05:32:38.968Z,9.29
2016-04-05T05:33:38.925Z,9.28
2016-04-05T05:34:38.881Z,9.32
2016-04-05T05:35:38.820Z,9.29
2016-04-05T05:36:38.776Z,9.32
2016-04-05T05:37:38.701Z,9.4
2016-04-05T05:38:38.656Z,9.41
2016-04-05T05:39:38.613Z,9.47
2016-04-05T05:40:38.553Z,9.4
2016-04-05T05:41:38.508Z,9.44
2016-04-05T05:42:38.450Z,9.56
2016-04-05T05:43:38.405Z,9.36
2016-04-05T05:44:38.345Z,9.43
2016-04-05T05:45:38.301Z,9.51
2016-04-05T05:46:38.241Z,9.58
2016-04-05T05:47:38.197Z,9.55
2016-04-05T05:48:38.152Z,9.72
2016-04-05T05:49:38.077Z,9.55
2016-04-05T05:50:38.016Z,9.5
2016-04-05T05:51:38.004Z,9.66
2016-04-05T05:52:37.944Z,9.74
2016-04-05T05:53:37.900Z,9.76
2016-04-05T05:54:37.810Z,9.91
2016-04-05T05:55:37.765Z,9.92
2016-04-05T05:56:37.721Z,9.83
2016-04-05T05:57:37.661Z,9.72
2016-04-05T05:58:37.617Z,9.8
2016-04-05T05:59:37.573Z,9.95
2016-04-05T06:00:37.498Z,9.89
2016-04-05T06:01:37.454Z,9.97
2016-04-05T06:02:37.409Z,9.87
2016-04-05T06:03:37.348Z,9.89
2016-04-05T06:04:37.321Z,9.83
2016-04-05T06:05:37.245Z,9.68
2016-04-05T06:06:37.200Z,9.76
2016-04-05T06:07:37.157Z,9.84
2016-04-05T06:08:37.097Z,9.98
2016-04-05T06:09:37.053Z,9.92
2016-04-05T06:10:37.009Z,9.94
2016-04-05T06:11:36.964Z,9.89
2016-04-05T06:12:36.905Z,10.07
2016-04-05T06:13:36.845Z,10.1
2016-04-05T06:14:36.785Z,10.16
2016-04-05T06:15:36.569Z,10.2
2016-04-05T06:16:36.681Z,10.37
2016-04-05T06:17:36.636Z,10.34
2016-04-05T06:18:36.577Z,10.25
2016-04-05T06:19:36.517Z,10.17
2016-04-05T06:20:36.472Z,10.16
2016-04-05T06:21:36.444Z,10.35
2016-04-05T06:22:36.385Z,10.56
2016-04-05T06:23:36.356Z,10.53
2016-04-05T06:24:36.109Z,10.67
2016-04-05T06:25:36.408Z,10.67
2016-04-05T06:26:36.160Z,10.78
2016-04-05T06:27:36.102Z,10.68
2016-04-05T06:28:36.041Z,10.76
2016-04-05T06:29:35.996Z,10.75
2016-04-05T06:30:35.969Z,10.86
2016-04-05T06:31:35.924Z,10.97
2016-04-05T06:32:35.865Z,10.97
2016-04-05T06:33:35.804Z,11.11
2016-04-05T06:34:35.760Z,10.97
2016-04-05T06:35:35.717Z,11.1
2016-04-05T06:36:35.672Z,11.26
2016-04-05T06:37:35.597Z,11.25
2016-04-05T06:38:35.537Z,11.25
2016-04-05T06:39:35.493Z,11.22
2016-04-05T06:40:35.433Z,11.1
2016-04-05T06:41:35.389Z,11.33
2016-04-05T06:42:35.361Z,11.25
2016-04-05T06:43:35.503Z,11.19
2016-04-05T06:44:35.241Z,11.18
2016-04-05T06:45:35.181Z,11.35
2016-04-05T06:46:35.122Z,11.5
2016-04-05T06:47:35.108Z,11.32
2016-04-05T06:48:35.047Z,11.26
2016-04-05T06:49:34.973Z,11.35
2016-04-05T06:50:34.928Z,11.36
2016-04-05T06:51:34.885Z,11.5
2016-04-05T06:52:34.825Z,11.5
2016-04-05T06:53:34.780Z,11.43
2016-04-05T06:54:34.736Z,11.59
2016-04-05T06:55:34.677Z,11.45
2016-04-05T06:56:34.632Z,11.37
2016-04-05T06:57:34.572Z,11.43
2016-04-05T06:58:34.529Z,11.37
2016-04-05T06:59:34.468Z,11.54
2016-04-05T07:00:34.424Z,11.55
2016-04-05T07:01:34.349Z,11.59
2016-04-05T07:02:34.320Z,11.59
2016-04-05T07:03:34.260Z,11.57
2016-04-05T07:04:34.216Z,11.52
2016-04-05T07:05:34.172Z,11.52
2016-04-05T07:06:34.143Z,11.5
2016-04-05T07:07:34.054Z,11.55
2016-04-05T07:08:34.056Z,11.59
2016-04-05T07:09:33.966Z,11.59
2016-04-05T07:10:33.891Z,11.66
2016-04-05T07:11:33.861Z,11.77
2016-04-05T07:12:33.817Z,11.88
2016-04-05T07:13:33.742Z,11.86
2016-04-05T07:14:33.714Z,12.03
2016-04-05T07:15:33.685Z,12.09
2016-04-05T07:16:33.594Z,12.25
2016-04-05T07:17:33.550Z,12.24
2016-04-05T07:18:33.491Z,12.27
2016-04-05T07:19:33.446Z,12.27
2016-04-05T07:20:33.402Z,12.31
2016-04-05T07:21:33.358Z,12.27
2016-04-05T07:22:33.298Z,12.43
2016-04-05T07:23:33.254Z,12.45
2016-04-05T07:24:33.225Z,12.31
2016-04-05T07:25:33.165Z,12.31
2016-04-05T07:26:33.137Z,12.43
2016-04-05T07:27:33.076Z,12.49
2016-04-05T07:28:33.017Z,12.55
2016-04-05T07:29:32.942Z,12.43
2016-04-05T07:30:32.897Z,12.36
2016-04-05T07:31:32.854Z,12.32
2016-04-05T07:32:32.793Z,12.46
2016-04-05T07:33:32.764Z,12.67
2016-04-05T07:34:32.720Z,12.73
2016-04-05T07:35:32.692Z,12.64
2016-04-05T07:36:32.617Z,12.62
2016-04-05T07:37:32.541Z,12.8
2016-04-05T07:38:32.513Z,12.75
2016-04-05T07:39:32.437Z,12.67
2016-04-05T07:40:32.408Z,12.7
2016-04-05T07:41:32.333Z,12.93
2016-04-05T07:42:32.289Z,13.01
2016-04-05T07:43:32.245Z,13.01
2016-04-05T07:44:32.200Z,13.23
2016-04-05T07:45:32.141Z,13.16
2016-04-05T07:46:32.097Z,13.23
2016-04-05T07:47:32.036Z,13.15
2016-04-05T07:48:32.008Z,13.27
2016-04-05T07:49:31.949Z,13.49
2016-04-05T07:50:31.905Z,13.23
2016-04-05T07:51:31.844Z,13.41
2016-04-05T07:52:31.800Z,13.41
2016-04-05T07:53:31.600Z,13.42
2016-04-05T07:54:31.680Z,13.56
2016-04-05T07:55:31.652Z,13.62
2016-04-05T07:56:31.593Z,13.87
2016-04-05T07:57:31.532Z,13.81
2016-04-05T07:58:31.520Z,13.87
2016-04-05T07:59:31.460Z,14.05
2016-04-05T08:00:31.400Z,14.05
2016-04-05T08:01:31.184Z,14.07
2016-04-05T08:02:31.295Z,14.04
2016-04-05T08:03:31.237Z,14.17
2016-04-05T08:04:31.207Z,14.04
2016-04-05T08:05:31.148Z,14.05
2016-04-05T08:06:31.120Z,14.04
2016-04-05T08:07:31.090Z,14.17
2016-04-05T08:08:31.031Z,14.2
2016-04-05T08:09:30.956Z,14.32
2016-04-05T08:10:30.911Z,14.23
2016-04-05T08:11:30.867Z,14.17
2016-04-05T08:12:30.791Z,14.3
2016-04-05T08:13:30.764Z,14.29
2016-04-05T08:14:30.719Z,14.25
2016-04-05T08:15:30.659Z,14.36
2016-04-05T08:16:30.599Z,14.41
2016-04-05T08:17:30.555Z,14.66
2016-04-05T08:18:30.511Z,14.5
2016-04-05T08:19:30.466Z,14.66
2016-04-05T08:20:30.408Z,14.68
2016-04-05T08:21:30.363Z,14.63
2016-04-05T08:22:30.334Z,14.85
2016-04-05T08:23:30.274Z,14.97
2016-04-05T08:24:30.214Z,14.92
2016-04-05T08:25:30.171Z,14.99
2016-04-05T08:26:30.110Z,15.09
2016-04-05T08:27:30.066Z,15.31
2016-04-05T08:28:30.022Z,15.14
2016-04-05T08:29:29.962Z,15.14
2016-04-05T08:30:29.949Z,15.29
2016-04-05T08:31:29.874Z,15.52
2016-04-05T08:32:29.814Z,15.76
2016-04-05T08:33:29.785Z,15.68
2016-04-05T08:34:29.726Z,15.82
2016-04-05T08:35:29.698Z,15.98
2016-04-05T08:36:29.637Z,16.05
2016-04-05T08:37:29.593Z,16.09
2016-04-05T08:38:29.533Z,16.16
2016-04-05T08:39:29.505Z,16.23
2016-04-05T08:40:29.445Z,16.47
2016-04-05T08:41:29.400Z,16.54
2016-04-05T08:42:29.185Z,16.6
2016-04-05T08:43:29.297Z,16.53
2016-04-05T08:44:29.252Z,16.72
2016-04-05T08:45:29.192Z,16.84
2016-04-05T08:46:29.149Z,16.79
2016-04-05T08:47:29.120Z,16.96
2016-04-05T08:48:29.060Z,17.06
2016-04-05T08:49:29.017Z,17.2
2016-04-05T08:50:28.972Z,17.3
2016-04-05T08:51:28.927Z,17.34
2016-04-05T08:52:28.868Z,17.34
2016-04-05T08:53:28.823Z,17.52
2016-04-05T08:54:28.780Z,17.65
2016-04-05T08:55:28.719Z,17.67
2016-04-05T08:56:28.691Z,17.86
2016-04-05T08:57:28.632Z,18.01
2016-04-05T08:58:28.571Z,18.04
2016-04-05T08:59:28.527Z,18.22
2016-04-05T09:00:28.468Z,18.33
2016-04-05T09:01:28.454Z,18.47
2016-04-05T09:02:28.379Z,18.56
2016-04-05T09:03:28.351Z,18.74
2016-04-05T09:04:28.291Z,18.92
2016-04-05T09:05:28.246Z,18.89
2016-04-05T09:06:28.218Z,18.92
2016-04-05T09:07:28.158Z,18.7
2016-04-05T09:08:28.114Z,18.83
2016-04-05T09:09:28.070Z,18.95
2016-04-05T09:10:28.030Z,18.86
2016-04-05T09:11:27.971Z,18.73
2016-04-05T09:12:27.958Z,18.9
2016-04-05T09:13:27.883Z,19.14
2016-04-05T09:14:27.838Z,19.08
2016-04-05T09:15:27.778Z,18.9
2016-04-05T09:16:27.734Z,18.89
2016-04-05T09:17:27.721Z,18.81
2016-04-05T09:18:27.646Z,18.92
2016-04-05T09:19:27.617Z,18.83
2016-04-05T09:20:27.542Z,18.8
2016-04-05T09:21:27.513Z,18.93
2016-04-05T09:22:27.469Z,18.89
2016-04-05T09:23:27.410Z,18.86
2016-04-05T09:24:27.380Z,18.73
2016-04-05T09:25:27.305Z,18.62
2016-04-05T09:26:27.292Z,18.88
2016-04-05T09:27:27.233Z,18.92
2016-04-05T09:28:27.188Z,18.95
2016-04-05T09:29:27.129Z,19.12
2016-04-05T09:30:27.084Z,19.07
2016-04-05T09:31:27.024Z,18.99
2016-04-05T09:32:26.996Z,19.09
2016-04-05T09:33:26.936Z,19.16
2016-04-05T09:34:26.892Z,19.14
2016-04-05T09:35:26.848Z,19.15
2016-04-05T09:36:26.788Z,19.19
2016-04-05T09:37:26.745Z,19.31
2016-04-05T09:38:26.731Z,19.19
2016-04-05T09:39:26.656Z,19.22
2016-04-05T09:40:26.627Z,19.37
2016-04-05T09:41:26.583Z,19.07
2016-04-05T09:42:26.522Z,19.19
2016-04-05T09:43:26.495Z,19.14
2016-04-05T09:44:26.434Z,19.3
2016-04-05T09:45:26.390Z,19.45
2016-04-05T09:46:26.361Z,19.48
2016-04-05T09:47:26.286Z,19.49
2016-04-05T09:48:26.241Z,19.58
2016-04-05T09:49:26.197Z,19.41
2016-04-05T09:50:26.155Z,19.51
2016-04-05T09:51:26.110Z,19.56
2016-04-05T09:52:26.065Z,19.55
2016-04-05T09:53:26.053Z,19.66
2016-04-05T09:54:25.977Z,19.64
2016-04-05T09:55:25.949Z,19.85
2016-04-05T09:56:25.904Z,19.84
2016-04-05T09:57:25.829Z,20.03
2016-04-05T09:58:25.785Z,20.03
2016-04-05T09:59:25.724Z,20.29
2016-04-05T10:00:25.681Z,20.36
2016-04-05T10:01:25.636Z,20.47
2016-04-05T10:02:25.608Z,20.52
2016-04-05T10:03:25.548Z,20.74
2016-04-05T10:04:25.504Z,20.52
2016-04-05T10:05:25.475Z,20.74
2016-04-05T10:06:25.415Z,20.81
2016-04-05T10:07:25.370Z,20.74
2016-04-05T10:08:25.342Z,20.85
2016-04-05T10:09:25.267Z,20.8
2016-04-05T10:10:25.222Z,20.97
2016-04-05T10:11:25.210Z,21.07
2016-04-05T10:12:25.197Z,21.03
2016-04-05T10:13:25.091Z,21.18
2016-04-05T10:14:25.047Z,21.25
2016-04-05T10:15:24.987Z,21.35
2016-04-05T10:16:24.974Z,21.25
2016-04-05T10:17:24.930Z,21.21
2016-04-05T10:18:24.870Z,21.12
2016-04-05T10:19:24.825Z,21
2016-04-05T10:20:24.781Z,21.11
2016-04-05T10:21:24.721Z,20.93
2016-04-05T10:22:24.693Z,20.96
2016-04-05T10:23:24.633Z,20.85
2016-04-05T10:24:24.588Z,20.81
2016-04-05T10:25:24.561Z,20.92
2016-04-05T10:26:24.516Z,21.09
2016-04-05T10:27:24.441Z,21.11
2016-04-05T10:28:24.397Z,21.17
2016-04-05T10:29:24.368Z,21.11
2016-04-05T10:30:24.340Z,21.17
2016-04-05T10:31:24.295Z,21.15
2016-04-05T10:32:24.235Z,21.22
2016-04-05T10:33:24.207Z,21.39
2016-04-05T10:34:24.163Z,21.54
2016-04-05T10:35:24.150Z,21.64
2016-04-05T10:36:24.059Z,21.7
2016-04-05T10:37:24.014Z,21.79
2016-04-05T10:38:23.954Z,21.88
2016-04-05T10:39:23.911Z,21.96
2016-04-05T10:40:23.881Z,22.18
2016-04-05T10:41:23.822Z,22.06
2016-04-05T10:42:23.778Z,22.07
2016-04-05T10:43:23.749Z,22.17
2016-04-05T10:44:23.690Z,21.96
2016-04-05T10:45:23.645Z,22.33
2016-04-05T10:46:23.617Z,22.33
2016-04-05T10:47:23.572Z,22.38
2016-04-05T10:48:23.497Z,22.43
2016-04-05T10:49:23.469Z,22.28
2016-04-05T10:50:23.440Z,22.35
2016-04-05T10:51:23.364Z,22.65
2016-04-05T10:52:23.336Z,22.69
2016-04-05T10:53:23.291Z,22.88
2016-04-05T10:54:23.247Z,22.78
2016-04-05T10:55:23.203Z,22.94
2016-04-05T10:56:23.160Z,23.05
2016-04-05T10:57:23.099Z,23.1
2016-04-05T10:58:23.055Z,23.06
2016-04-05T10:59:23.027Z,22.78
2016-04-05T11:00:22.968Z,22.87
2016-04-05T11:01:22.829Z,22.62
2016-04-05T11:02:22.879Z,22.62
2016-04-05T11:03:22.850Z,22.73
2016-04-05T11:04:22.791Z,22.91
2016-04-05T11:05:22.746Z,22.99
2016-04-05T11:06:22.702Z,23
2016-04-05T11:07:22.674Z,23.03
2016-04-05T11:08:22.620Z,23.09
2016-04-05T11:09:22.443Z,23.12
2016-04-05T11:10:22.523Z,23.21
2016-04-05T11:11:22.479Z,23.25
2016-04-05T11:12:22.434Z,23.41
2016-04-05T11:13:22.390Z,23.36
2016-04-05T11:14:22.362Z,23.2
2016-04-05T11:15:22.303Z,23.36
2016-04-05T11:16:22.243Z,23.36
2016-04-05T11:17:22.245Z,23.4
2016-04-05T11:18:22.170Z,23.46
2016-04-05T11:19:22.173Z,23.23
2016-04-05T11:20:22.081Z,23.18
2016-04-05T11:21:22.037Z,23.32
2016-04-05T11:22:21.993Z,23.31
2016-04-05T11:23:21.950Z,23.44
2016-04-05T11:24:21.905Z,23.34
2016-04-05T11:25:21.875Z,23.18
2016-04-05T11:26:21.816Z,23.46
2016-04-05T11:27:21.647Z,23.69
2016-04-05T11:28:21.728Z,23.66
2016-04-05T11:29:21.684Z,23.68
2016-04-05T11:30:21.639Z,23.91
2016-04-05T11:31:21.752Z,24.01
2016-04-05T11:32:21.567Z,23.73
2016-04-05T11:33:21.522Z,23.98
2016-04-05T11:34:21.510Z,24.03
2016-04-05T11:35:21.403Z,24.18
2016-04-05T11:36:21.359Z,24.1
2016-04-05T11:37:21.330Z,24.11
2016-04-05T11:38:21.285Z,24.29
2016-04-05T11:39:21.242Z,24.29
2016-04-05T11:40:21.229Z,24.2
2016-04-05T11:41:21.168Z,24.32
2016-04-05T11:42:21.125Z,24.48
2016-04-05T11:43:21.095Z,24.51
2016-04-05T11:44:21.036Z,24.43
2016-04-05T11:45:20.992Z,24.24
2016-04-05T11:46:21.025Z,24.23
2016-04-05T11:47:20.904Z,24.16
2016-04-05T11:48:20.859Z,24.17
2016-04-05T11:49:20.831Z,24.11
2016-04-05T11:50:20.771Z,24.1
2016-04-05T11:51:20.725Z,23.99
2016-04-05T11:52:20.673Z,24.1
2016-04-05T11:53:20.603Z,24.26
2016-04-05T11:54:20.550Z,23.99
2016-04-05T11:55:20.544Z,24.13
2016-04-05T11:56:20.446Z,24.16
2016-04-05T11:57:20.414Z,23.99
2016-04-05T11:58:20.367Z,24.11
2016-04-05T11:59:20.303Z,24.21
2016-04-05T12:00:20.273Z,24.24
2016-04-05T12:01:20.194Z,24.45
2016-04-05T12:02:20.211Z,24.47
2016-04-05T12:03:20.151Z,24.58
2016-04-05T12:04:20.089Z,24.65
2016-04-05T12:05:20.059Z,24.57
2016-04-05T12:06:20.031Z,24.68
2016-04-05T12:07:19.970Z,24.7
2016-04-05T12:08:19.910Z,24.95
2016-04-05T12:09:19.881Z,24.93
2016-04-05T12:10:19.836Z,24.91
2016-04-05T12:11:19.792Z,24.89
2016-04-05T12:12:19.732Z,24.81
2016-04-05T12:13:19.719Z,24.81
2016-04-05T12:14:19.659Z,24.66
2016-04-05T12:15:19.615Z,24.74
2016-04-05T12:16:19.617Z,24.6
2016-04-05T12:17:19.542Z,24.55
2016-04-05T12:18:19.483Z,24.43
2016-04-05T12:19:19.439Z,24.53
2016-04-05T12:20:19.394Z,24.61
2016-04-05T12:21:19.350Z,24.36
2016-04-05T12:22:19.305Z,24.36
2016-04-05T12:23:19.293Z,24.39
2016-04-05T12:24:19.217Z,24.5
2016-04-05T12:25:19.174Z,24.29
2016-04-05T12:26:19.129Z,24.11
2016-04-05T12:27:19.100Z,24.13
2016-04-05T12:28:19.056Z,24.18
2016-04-05T12:29:18.997Z,24.26
2016-04-05T12:30:18.968Z,24.33
2016-04-05T12:31:18.908Z,24.3
2016-04-05T12:32:18.879Z,24.38
2016-04-05T12:33:18.820Z,24.28
2016-04-05T12:34:18.822Z,24.17
2016-04-05T12:35:18.746Z,24.18
2016-04-05T12:36:18.703Z,24.2
2016-04-05T12:37:18.674Z,23.81
2016-04-05T12:38:18.599Z,23.77
2016-04-05T12:39:18.587Z,23.71
2016-04-05T12:40:18.526Z,23.78
2016-04-05T12:41:18.512Z,23.92
2016-04-05T12:42:18.437Z,23.63
2016-04-05T12:43:18.409Z,23.66
2016-04-05T12:44:18.365Z,23.91
2016-04-05T12:45:18.321Z,23.93
2016-04-05T12:46:18.276Z,24.03
2016-04-05T12:47:18.216Z,24.06
2016-04-05T12:48:18.173Z,23.96
2016-04-05T12:49:18.145Z,24.13
2016-04-05T12:50:18.100Z,23.96
2016-04-05T12:51:18.056Z,23.63
2016-04-05T12:52:18.043Z,23.71
2016-04-05T12:53:17.983Z,23.88
2016-04-05T12:54:17.955Z,24.02
2016-04-05T12:55:17.910Z,24.03
2016-04-05T12:56:17.850Z,23.93
2016-04-05T12:57:17.821Z,24.01
2016-04-05T12:58:17.763Z,23.96
2016-04-05T12:59:17.718Z,24.01
2016-04-05T13:00:17.673Z,24.03
2016-04-05T13:01:17.613Z,23.61
2016-04-05T13:02:17.585Z,23.73